createdAt,value
2018-02-10T00:01:22.856Z,57.15
2018-02-10T00:03:52.577Z,56.25
2018-02-10T00:06:22.410Z,59.35
2018-02-10T00:08:52.125Z,61.55
2018-02-10T00:11:21.857Z,64.53
2018-02-10T00:13:51.589Z,62.33
2018-02-10T00:16:21.311Z,54.83
2018-02-10T00:18:51.037Z,61.47
2018-02-10T00:21:20.757Z,67.80
2018-02-10T00:23:50.501Z,68.35
2018-02-10T00:26:20.245Z,64.03
2018-02-10T00:28:49.978Z,59.03
2018-02-10T00:31:19.792Z,57.08
2018-02-10T00:33:49.510Z,58.20
2018-02-10T00:36:19.254Z,60.47
2018-02-10T00:38:48.992Z,59.67
2018-02-10T00:41:18.718Z,60.75
2018-02-10T00:43:48.442Z,58.35
2018-02-10T00:46:18.161Z,59.53
2018-02-10T00:48:47.901Z,59.28
2018-02-10T00:51:17.603Z,59.90
2018-02-10T00:53:47.359Z,55.03
2018-02-10T00:56:17.114Z,63.13
2018-02-10T00:58:46.849Z,62.65
2018-02-10T01:01:16.616Z,60.35
2018-02-10T01:03:46.326Z,63.63
2018-02-10T01:06:16.065Z,59.28
2018-02-10T01:08:45.774Z,68.37
2018-02-10T01:11:15.497Z,58.03
2018-02-10T01:13:45.263Z,58.80
2018-02-10T01:16:15.066Z,62.80
2018-02-10T01:18:44.816Z,57.92
2018-02-10T01:21:14.554Z,59.05
2018-02-10T01:23:44.260Z,50.97
2018-02-10T01:26:13.982Z,63.83
2018-02-10T01:28:43.698Z,55.63
2018-02-10T01:31:13.438Z,60.20
2018-02-10T01:33:43.189Z,59.13
2018-02-10T01:36:12.906Z,56.40
2018-02-10T01:38:42.833Z,54.38
2018-02-10T01:41:12.629Z,54.97
2018-02-10T01:43:42.362Z,55.78
2018-02-10T01:46:12.090Z,54.22
2018-02-10T01:48:41.826Z,56.53
2018-02-10T01:51:11.546Z,53.03
2018-02-10T01:53:41.288Z,56.15
2018-02-10T01:56:11.037Z,54.55
2018-02-10T01:58:40.797Z,49.35
2018-02-10T02:01:10.593Z,51.53
2018-02-10T02:03:40.526Z,53.85
2018-02-10T02:06:10.358Z,46.15
2018-02-10T02:08:40.085Z,49.03
2018-02-10T02:11:09.806Z,53.22
2018-02-10T02:13:39.521Z,53.00
2018-02-10T02:16:09.257Z,54.88
2018-02-10T02:18:38.982Z,53.65
2018-02-10T02:21:08.770Z,50.75
2018-02-10T02:23:38.498Z,52.67
2018-02-10T02:26:08.236Z,53.45
2018-02-10T02:28:37.997Z,50.58
2018-02-10T02:31:07.901Z,51.37
2018-02-10T02:33:37.646Z,52.90
2018-02-10T02:36:07.549Z,56.58
2018-02-10T02:38:37.281Z,49.47
2018-02-10T02:41:07.019Z,52.67
2018-02-10T02:43:36.748Z,51.22
2018-02-10T02:46:06.454Z,50.28
2018-02-10T02:48:36.198Z,50.10
2018-02-10T02:51:05.953Z,52.05
2018-02-10T02:53:35.679Z,52.10
2018-02-10T02:56:05.473Z,53.80
2018-02-10T02:58:35.220Z,56.20
2018-02-10T03:01:04.958Z,49.65
2018-02-10T03:03:34.677Z,52.70
2018-02-10T03:06:04.085Z,50.28
2018-02-10T03:08:33.800Z,48.55
2018-02-10T03:11:03.550Z,54.78
2018-02-10T03:13:33.261Z,51.65
2018-02-10T03:16:02.986Z,54.30
2018-02-10T03:18:32.457Z,47.93
2018-02-10T03:21:02.177Z,48.50
2018-02-10T03:23:31.901Z,48.08
2018-02-10T03:26:01.694Z,49.72
2018-02-10T03:28:31.425Z,49.53
2018-02-10T03:31:01.133Z,53.00
2018-02-10T03:33:30.871Z,57.40
2018-02-10T03:36:00.580Z,49.78
2018-02-10T03:38:30.308Z,53.50
2018-02-10T03:41:00.026Z,48.03
2018-02-10T03:43:29.447Z,60.38
2018-02-10T03:45:59.157Z,52.03
2018-02-10T03:48:28.882Z,53.13
2018-02-10T03:50:58.597Z,51.10
2018-02-10T03:53:28.338Z,52.38
2018-02-10T03:55:58.056Z,49.50
2018-02-10T03:58:27.785Z,50.45
2018-02-10T04:00:57.691Z,55.08
2018-02-10T04:03:27.403Z,47.25
2018-02-10T04:05:57.145Z,53.83
2018-02-10T04:08:26.857Z,50.50
2018-02-10T04:10:56.593Z,50.90
2018-02-10T04:13:26.471Z,48.95
2018-02-10T04:15:56.293Z,55.10
2018-02-10T04:18:26.010Z,49.33
2018-02-10T04:20:55.745Z,53.55
2018-02-10T04:23:25.606Z,47.28
2018-02-10T04:25:55.337Z,51.15
2018-02-10T04:28:25.049Z,55.47
2018-02-10T04:30:54.792Z,48.70
2018-02-10T04:33:24.532Z,52.80
2018-02-10T04:35:54.265Z,54.63
2018-02-10T04:38:23.993Z,50.80
2018-02-10T04:40:53.706Z,51.65
2018-02-10T04:43:23.445Z,51.60
2018-02-10T04:45:53.154Z,50.70
2018-02-10T04:48:23.025Z,52.88
2018-02-10T04:50:52.741Z,56.25
2018-02-10T04:53:22.465Z,52.30
2018-02-10T04:55:52.184Z,56.25
2018-02-10T04:58:21.913Z,53.92
2018-02-10T05:00:51.684Z,48.33
2018-02-10T05:03:21.398Z,48.67
2018-02-10T05:05:51.135Z,55.70
2018-02-10T05:08:20.841Z,50.38
2018-02-10T05:10:50.577Z,46.20
2018-02-10T05:13:20.297Z,50.17
2018-02-10T05:15:50.037Z,50.88
2018-02-10T05:18:19.742Z,54.40
2018-02-10T05:20:49.468Z,45.20
2018-02-10T05:23:19.261Z,52.88
2018-02-10T05:25:49.208Z,53.55
2018-02-10T05:28:18.709Z,47.87
2018-02-10T05:30:48.434Z,50.80
2018-02-10T05:33:18.153Z,50.03
2018-02-10T05:35:47.881Z,54.25
2018-02-10T05:38:17.582Z,45.92
2018-02-10T05:40:47.309Z,53.85
2018-02-10T05:43:17.052Z,51.65
2018-02-10T05:45:46.768Z,48.03
2018-02-10T05:48:16.486Z,54.97
2018-02-10T05:50:46.233Z,49.90
2018-02-10T05:53:15.973Z,48.10
2018-02-10T05:55:45.681Z,46.90
2018-02-10T05:58:15.433Z,48.87
2018-02-10T06:00:45.189Z,52.17
2018-02-10T06:03:14.934Z,51.58
2018-02-10T06:05:44.644Z,48.97
2018-02-10T06:08:14.400Z,51.35
2018-02-10T06:10:44.127Z,48.55
2018-02-10T06:13:14.039Z,50.58
2018-02-10T06:15:43.751Z,49.50
2018-02-10T06:18:13.489Z,47.35
2018-02-10T06:20:43.221Z,49.72
2018-02-10T06:23:12.945Z,45.85
2018-02-10T06:25:42.661Z,48.95
2018-02-10T06:28:12.376Z,47.72
2018-02-10T06:30:42.142Z,47.60
2018-02-10T06:33:11.842Z,54.15
2018-02-10T06:35:41.608Z,48.53
2018-02-10T06:38:11.349Z,46.60
2018-02-10T06:40:41.071Z,53.17
2018-02-10T06:43:10.802Z,49.35
2018-02-10T06:45:40.562Z,54.65
2018-02-10T06:48:10.274Z,51.53
2018-02-10T06:50:39.995Z,54.88
2018-02-10T06:53:09.723Z,49.53
2018-02-10T06:55:39.437Z,52.60
2018-02-10T06:58:09.204Z,48.53
2018-02-10T07:00:39.113Z,49.55
2018-02-10T07:03:08.874Z,49.45
2018-02-10T07:05:38.612Z,49.83
2018-02-10T07:08:08.389Z,47.33
2018-02-10T07:10:38.113Z,47.62
2018-02-10T07:13:07.843Z,52.67
2018-02-10T07:15:37.575Z,51.60
2018-02-10T07:18:07.478Z,45.08
2018-02-10T07:20:37.217Z,49.15
2018-02-10T07:23:06.989Z,46.70
2018-02-10T07:25:36.720Z,46.70
2018-02-10T07:28:06.520Z,48.13
2018-02-10T07:30:36.155Z,46.10
2018-02-10T07:33:05.889Z,48.80
2018-02-10T07:35:35.610Z,48.28
2018-02-10T07:38:05.337Z,50.78
2018-02-10T07:40:35.057Z,44.28
2018-02-10T07:43:04.777Z,51.65
2018-02-10T07:45:34.701Z,51.00
2018-02-10T07:48:04.451Z,54.78
2018-02-10T07:50:34.208Z,45.28
2018-02-10T07:53:03.957Z,48.40
2018-02-10T07:55:33.688Z,47.33
2018-02-10T07:58:03.413Z,52.90
2018-02-10T08:00:33.141Z,45.28
2018-02-10T08:03:02.595Z,48.00
2018-02-10T08:05:32.322Z,46.92
2018-02-10T08:08:02.034Z,50.12
2018-02-10T08:10:31.772Z,51.75
2018-02-10T08:13:01.488Z,49.00
2018-02-10T08:15:31.221Z,44.70
2018-02-10T08:18:00.929Z,43.85
2018-02-10T08:20:30.686Z,46.00
2018-02-10T08:23:00.451Z,49.97
2018-02-10T08:25:30.166Z,47.50
2018-02-10T08:27:59.609Z,46.53
2018-02-10T08:30:29.046Z,39.07
2018-02-10T08:32:58.765Z,45.60
2018-02-10T08:35:28.209Z,41.77
2018-02-10T08:37:57.669Z,43.70
2018-02-10T08:40:27.125Z,46.23
2018-02-10T08:42:56.859Z,50.90
2018-02-10T08:45:26.607Z,46.05
2018-02-10T08:47:56.062Z,44.10
2018-02-10T08:50:25.769Z,45.65
2018-02-10T08:52:55.510Z,46.47
2018-02-10T08:55:24.941Z,44.67
2018-02-10T08:57:54.401Z,45.57
2018-02-10T09:00:23.840Z,45.57
2018-02-10T09:02:53.575Z,45.47
2018-02-10T09:05:23.285Z,46.97
2018-02-10T09:07:52.749Z,47.17
2018-02-10T09:10:22.206Z,45.23
2018-02-10T09:12:51.913Z,47.05
2018-02-10T09:15:21.642Z,47.15
2018-02-10T09:17:51.094Z,47.40
2018-02-10T09:20:20.593Z,46.70
2018-02-10T09:22:50.301Z,48.60
2018-02-10T09:25:19.754Z,44.17
2018-02-10T09:27:49.261Z,43.50
2018-02-10T09:30:18.705Z,44.67
2018-02-10T09:32:48.146Z,42.70
2018-02-10T09:35:17.875Z,45.88
2018-02-10T09:37:47.350Z,47.17
2018-02-10T09:40:16.801Z,43.70
2018-02-10T09:42:46.229Z,39.97
2018-02-10T09:45:15.776Z,43.30
2018-02-10T09:47:45.320Z,46.83
2018-02-10T09:50:14.789Z,44.00
2018-02-10T09:52:44.250Z,43.90
2018-02-10T09:55:13.746Z,43.23
2018-02-10T09:57:43.343Z,41.77
2018-02-10T10:00:12.783Z,41.67
2018-02-10T10:02:42.246Z,45.73
2018-02-10T10:05:11.673Z,44.10
2018-02-10T10:07:41.130Z,45.30
2018-02-10T10:10:10.580Z,43.63
2018-02-10T10:12:40.037Z,40.40
2018-02-10T10:15:09.493Z,49.60
2018-02-10T10:17:38.933Z,46.43
2018-02-10T10:20:08.390Z,45.30
2018-02-10T10:22:38.066Z,39.40
2018-02-10T10:25:07.543Z,39.30
2018-02-10T10:27:37.081Z,42.50
2018-02-10T10:30:06.561Z,48.33
2018-02-10T10:32:35.993Z,41.50
2018-02-10T10:35:05.493Z,41.50
2018-02-10T10:37:34.941Z,42.93
2018-02-10T10:40:04.408Z,43.40
2018-02-10T10:42:33.849Z,44.13
2018-02-10T10:45:03.333Z,46.03
2018-02-10T10:47:32.768Z,38.93
2018-02-10T10:50:02.238Z,33.20
2018-02-10T10:52:31.957Z,38.00
2018-02-10T10:55:01.400Z,31.60
2018-02-10T10:57:30.854Z,27.97
2018-02-10T11:00:00.295Z,27.50
2018-02-10T11:02:29.846Z,31.40
2018-02-10T11:04:59.297Z,35.60
2018-02-10T11:07:28.805Z,32.77
2018-02-10T11:09:58.342Z,33.47
2018-02-10T11:12:27.918Z,34.53
2018-02-10T11:14:57.376Z,35.33
2018-02-10T11:17:26.851Z,28.33
2018-02-10T11:19:56.297Z,28.20
2018-02-10T11:22:25.802Z,30.30
2018-02-10T11:24:55.042Z,29.27
2018-02-10T11:27:24.492Z,29.33
2018-02-10T11:29:53.950Z,26.97
2018-02-10T11:32:23.402Z,31.20
2018-02-10T11:34:52.669Z,31.90
2018-02-10T11:37:22.235Z,42.93
2018-02-10T11:39:51.798Z,28.83
2018-02-10T11:42:21.233Z,31.00
2018-02-10T11:44:50.715Z,28.10
2018-02-10T11:47:20.173Z,31.20
2018-02-10T11:49:49.641Z,26.60
2018-02-10T11:52:19.081Z,32.53
2018-02-10T11:54:48.516Z,31.00
2018-02-10T11:57:17.973Z,32.00
2018-02-10T11:59:47.445Z,26.90
2018-02-10T12:02:16.921Z,28.13
2018-02-10T12:04:46.395Z,30.57
2018-02-10T12:07:15.855Z,27.50
2018-02-10T12:09:45.294Z,28.80
2018-02-10T12:12:14.771Z,28.53
2018-02-10T12:14:44.197Z,29.33
2018-02-10T12:17:13.647Z,26.80
2018-02-10T12:19:43.086Z,33.77
2018-02-10T12:22:12.678Z,28.73
2018-02-10T12:24:42.119Z,27.97
2018-02-10T12:27:11.696Z,28.60
2018-02-10T12:29:41.210Z,24.00
2018-02-10T12:32:10.657Z,27.23
2018-02-10T12:34:40.154Z,26.17
2018-02-10T12:37:09.617Z,27.17
2018-02-10T12:39:39.082Z,25.73
2018-02-10T12:42:08.657Z,26.17
2018-02-10T12:44:38.126Z,25.60
2018-02-10T12:47:07.572Z,31.60
2018-02-10T12:49:37.041Z,23.90
2018-02-10T12:52:06.507Z,24.90
2018-02-10T12:54:35.978Z,29.73
2018-02-10T12:57:05.430Z,31.57
2018-02-10T12:59:34.882Z,32.17
2018-02-10T13:02:04.373Z,31.37
2018-02-10T13:04:33.841Z,33.13
2018-02-10T13:07:03.285Z,34.70
2018-02-10T13:09:32.758Z,34.43
2018-02-10T13:12:02.194Z,33.53
2018-02-10T13:14:31.653Z,40.80
2018-02-10T13:17:01.087Z,34.13
2018-02-10T13:19:30.538Z,28.90
2018-02-10T13:22:00.058Z,33.13
2018-02-10T13:24:29.709Z,36.30
2018-02-10T13:26:59.150Z,35.13
2018-02-10T13:29:28.601Z,34.17
2018-02-10T13:31:58.049Z,30.53
2018-02-10T13:34:27.493Z,33.10
2018-02-10T13:36:56.941Z,24.80
2018-02-10T13:39:26.369Z,33.20
2018-02-10T13:41:55.830Z,31.77
2018-02-10T13:44:25.279Z,33.77
2018-02-10T13:46:54.717Z,34.90
2018-02-10T13:49:24.206Z,31.40
2018-02-10T13:51:55.392Z,31.00
2018-02-10T13:54:25.009Z,30.10
2018-02-10T13:56:54.654Z,36.10
2018-02-10T13:59:24.106Z,33.73
2018-02-10T14:01:53.567Z,32.90
2018-02-10T14:04:23.029Z,34.67
2018-02-10T14:06:52.478Z,31.10
2018-02-10T14:09:21.922Z,24.47
2018-02-10T14:11:51.051Z,27.60
2018-02-10T14:14:20.517Z,23.40
2018-02-10T14:16:49.950Z,26.37
2018-02-10T14:19:19.401Z,23.93
2018-02-10T14:21:48.861Z,22.00
2018-02-10T14:24:18.609Z,23.08
2018-02-10T14:26:48.330Z,26.33
2018-02-10T14:29:17.844Z,18.67
2018-02-10T14:31:47.311Z,22.30
2018-02-10T14:34:16.769Z,23.10
2018-02-10T14:36:46.053Z,20.87
2018-02-10T14:39:15.526Z,18.43
2018-02-10T14:41:44.977Z,14.83
2018-02-10T14:44:14.423Z,18.07
2018-02-10T14:46:43.873Z,19.90
2018-02-10T14:49:13.332Z,18.30
2018-02-10T14:51:42.771Z,16.83
2018-02-10T14:54:12.587Z,19.87
2018-02-10T14:56:42.026Z,19.00
2018-02-10T14:59:11.750Z,19.37
2018-02-10T15:01:41.503Z,20.00
2018-02-10T15:04:11.281Z,16.85
2018-02-10T15:06:40.994Z,18.00
2018-02-10T15:09:10.953Z,21.17
2018-02-10T15:11:40.685Z,18.45
2018-02-10T15:14:10.423Z,17.30
2018-02-10T15:16:40.173Z,16.55
2018-02-10T15:19:09.918Z,17.73
2018-02-10T15:21:39.672Z,15.15
2018-02-10T15:24:09.410Z,17.23
2018-02-10T15:26:38.954Z,18.08
2018-02-10T15:29:08.767Z,20.70
2018-02-10T15:31:44.161Z,20.30
2018-02-10T15:34:19.519Z,25.83
2018-02-10T15:36:49.270Z,25.55
2018-02-10T15:39:19.173Z,29.70
2018-02-10T15:41:48.921Z,22.85
2018-02-10T15:44:18.672Z,23.40
2018-02-10T15:46:48.412Z,21.30
2018-02-10T15:49:18.137Z,24.95
2018-02-10T15:51:47.609Z,22.10
2018-02-10T15:54:17.329Z,23.87
2018-02-10T15:56:47.063Z,26.00
2018-02-10T15:59:16.790Z,28.38
2018-02-10T16:01:46.625Z,26.60
2018-02-10T16:04:16.463Z,26.15
2018-02-10T16:06:46.175Z,27.48
2018-02-10T16:09:15.951Z,26.90
2018-02-10T16:11:45.821Z,25.05
2018-02-10T16:14:15.558Z,25.08
2018-02-10T16:16:45.284Z,23.65
2018-02-10T16:19:14.753Z,23.80
2018-02-10T16:21:44.485Z,23.48
2018-02-10T16:24:14.285Z,22.15
2018-02-10T16:26:44.019Z,26.62
2018-02-10T16:29:13.612Z,25.20
2018-02-10T16:31:43.354Z,24.52
2018-02-10T16:34:13.073Z,28.50
2018-02-10T16:36:42.861Z,28.08
2018-02-10T16:39:12.559Z,27.62
2018-02-10T16:41:42.307Z,45.90
2018-02-10T16:44:12.639Z,29.40
2018-02-10T16:46:42.410Z,28.70
2018-02-10T16:49:12.129Z,28.08
2018-02-10T16:51:41.870Z,25.08
2018-02-10T16:54:11.682Z,26.25
2018-02-10T16:56:41.426Z,25.45
2018-02-10T16:59:11.144Z,27.00
2018-02-10T17:01:40.994Z,23.30
2018-02-10T17:04:10.706Z,27.37
2018-02-10T17:06:40.442Z,30.50
2018-02-10T17:09:10.171Z,24.92
2018-02-10T17:11:39.906Z,27.40
2018-02-10T17:14:09.622Z,27.95
2018-02-10T17:16:39.372Z,22.90
2018-02-10T17:19:09.098Z,25.23
2018-02-10T17:21:38.837Z,22.67
2018-02-10T17:24:08.613Z,27.85
2018-02-10T17:26:38.334Z,23.08
2018-02-10T17:29:08.068Z,20.77
2018-02-10T17:31:37.793Z,24.20
2018-02-10T17:34:07.527Z,23.23
2018-02-10T17:36:37.262Z,25.88
2018-02-10T17:39:06.802Z,23.13
2018-02-10T17:41:36.553Z,23.12
2018-02-10T17:44:06.334Z,21.60
2018-02-10T17:46:36.267Z,29.87
2018-02-10T17:49:05.991Z,27.77
2018-02-10T17:51:35.701Z,24.10
2018-02-10T17:54:05.160Z,24.50
2018-02-10T17:56:34.902Z,25.55
2018-02-10T17:59:04.649Z,19.58
2018-02-10T18:01:34.387Z,23.05
2018-02-10T18:04:04.136Z,21.30
2018-02-10T18:06:33.864Z,24.35
2018-02-10T18:09:03.054Z,22.05
2018-02-10T18:11:32.797Z,24.98
2018-02-10T18:14:02.521Z,20.15
2018-02-10T18:16:32.263Z,21.30
2018-02-10T18:19:01.982Z,21.52
2018-02-10T18:21:31.713Z,23.77
2018-02-10T18:24:01.442Z,19.42
2018-02-10T18:26:31.240Z,21.58
2018-02-10T18:29:00.977Z,23.52
2018-02-10T18:31:30.791Z,25.17
2018-02-10T18:34:00.529Z,22.02
2018-02-10T18:36:29.976Z,26.77
2018-02-10T18:38:59.452Z,25.47
2018-02-10T18:41:28.909Z,22.50
2018-02-10T18:43:58.386Z,21.37
2018-02-10T18:46:27.834Z,25.73
2018-02-10T18:48:57.304Z,22.63
2018-02-10T18:51:26.772Z,19.30
2018-02-10T18:53:56.331Z,21.90
2018-02-10T18:56:26.083Z,21.73
2018-02-10T18:58:55.982Z,22.37
2018-02-10T19:01:25.867Z,21.55
2018-02-10T19:03:55.607Z,22.00
2018-02-10T19:06:25.330Z,17.42
2018-02-10T19:08:54.790Z,19.33
2018-02-10T19:11:24.337Z,22.70
2018-02-10T19:13:54.238Z,23.98
2018-02-10T19:16:23.697Z,25.27
2018-02-10T19:18:53.537Z,22.33
2018-02-10T19:21:22.994Z,21.93
2018-02-10T19:23:52.461Z,18.87
2018-02-10T19:26:22.368Z,16.83
2018-02-10T19:28:52.094Z,16.48
2018-02-10T19:31:21.842Z,17.95
2018-02-10T19:33:51.606Z,17.08
2018-02-10T19:36:21.329Z,16.62
2018-02-10T19:38:51.073Z,20.50
2018-02-10T19:41:20.813Z,20.88
2018-02-10T19:43:50.290Z,18.83
2018-02-10T19:46:20.059Z,15.75
2018-02-10T19:48:49.805Z,17.37
2018-02-10T19:51:19.545Z,19.58
2018-02-10T19:53:51.233Z,19.50
2018-02-10T19:56:20.714Z,17.87
2018-02-10T19:58:50.459Z,15.45
2018-02-10T20:01:20.196Z,18.95
2018-02-10T20:03:49.957Z,17.00
2018-02-10T20:06:19.681Z,18.02
2018-02-10T20:08:49.445Z,18.15
2018-02-10T20:11:19.202Z,16.58
2018-02-10T20:13:48.944Z,16.30
2018-02-10T20:16:18.697Z,19.08
2018-02-10T20:18:48.170Z,17.27
2018-02-10T20:21:17.921Z,19.83
2018-02-10T20:23:47.661Z,18.60
2018-02-10T20:26:17.377Z,16.77
2018-02-10T20:28:47.194Z,14.52
2018-02-10T20:31:16.970Z,14.50
2018-02-10T20:33:46.722Z,13.38
2018-02-10T20:36:16.457Z,14.13
2018-02-10T20:38:46.307Z,14.35
2018-02-10T20:41:16.146Z,13.55
2018-02-10T20:43:45.907Z,14.90
2018-02-10T20:46:15.641Z,12.85
2018-02-10T20:48:45.410Z,13.35
2018-02-10T20:51:15.172Z,13.70
2018-02-10T20:53:44.946Z,15.85
2018-02-10T20:56:14.945Z,15.85
2018-02-10T20:58:44.716Z,16.00
2018-02-10T21:01:14.445Z,14.57
2018-02-10T21:03:44.391Z,14.87
2018-02-10T21:06:14.125Z,12.10
2018-02-10T21:08:43.871Z,13.75
2018-02-10T21:11:13.688Z,15.25
2018-02-10T21:13:43.417Z,14.65
2018-02-10T21:16:13.153Z,12.68
2018-02-10T21:18:42.933Z,12.43
2018-02-10T21:21:12.693Z,15.93
2018-02-10T21:23:42.418Z,15.30
2018-02-10T21:26:12.211Z,14.87
2018-02-10T21:28:41.925Z,14.75
2018-02-10T21:31:11.673Z,13.70
2018-02-10T21:33:41.385Z,13.32
2018-02-10T21:36:11.129Z,11.50
2018-02-10T21:38:40.854Z,11.15
2018-02-10T21:41:10.593Z,12.82
2018-02-10T21:43:40.380Z,12.02
2018-02-10T21:46:10.169Z,13.73
2018-02-10T21:48:39.966Z,12.80
2018-02-10T21:51:09.682Z,15.30
2018-02-10T21:53:39.444Z,12.60
2018-02-10T21:56:09.181Z,14.05
2018-02-10T21:58:38.975Z,12.75
2018-02-10T22:01:08.697Z,15.48
2018-02-10T22:03:38.449Z,14.23
2018-02-10T22:06:08.369Z,12.82
2018-02-10T22:08:38.131Z,13.50
2018-02-10T22:11:07.913Z,11.98
2018-02-10T22:13:37.654Z,17.02
2018-02-10T22:16:07.431Z,13.13
2018-02-10T22:18:37.400Z,12.05
2018-02-10T22:21:07.206Z,15.38
2018-02-10T22:23:37.129Z,17.33
2018-02-10T22:26:06.861Z,18.00
2018-02-10T22:28:36.608Z,17.40
2018-02-10T22:31:06.349Z,15.55
2018-02-10T22:33:36.234Z,17.58
2018-02-10T22:36:05.982Z,18.65
2018-02-10T22:38:35.740Z,14.60
2018-02-10T22:41:05.474Z,15.50
2018-02-10T22:43:35.200Z,16.62
2018-02-10T22:46:04.945Z,16.75
2018-02-10T22:48:34.506Z,17.10
2018-02-10T22:51:04.273Z,16.00
2018-02-10T22:53:33.838Z,18.20
2018-02-10T22:56:03.553Z,16.50
2018-02-10T22:58:33.373Z,17.58
2018-02-10T23:01:08.801Z,13.85
2018-02-10T23:03:38.554Z,15.07
2018-02-10T23:06:08.280Z,15.95
2018-02-10T23:08:38.035Z,15.45
2018-02-10T23:11:07.762Z,15.65
2018-02-10T23:13:37.482Z,14.73
2018-02-10T23:16:06.888Z,16.65
2018-02-10T23:18:36.605Z,15.00
2018-02-10T23:21:06.369Z,14.95
2018-02-10T23:23:36.206Z,17.00
2018-02-10T23:26:05.945Z,17.60
2018-02-10T23:28:35.737Z,14.48
2018-02-10T23:31:05.490Z,16.50
2018-02-10T23:33:35.284Z,14.27
2018-02-10T23:36:05.193Z,17.15
2018-02-10T23:38:34.941Z,17.52
2018-02-10T23:41:04.661Z,17.90
2018-02-10T23:43:34.391Z,18.55
2018-02-10T23:46:04.113Z,15.75
2018-02-10T23:48:33.876Z,20.98
2018-02-10T23:51:03.600Z,18.73
2018-02-10T23:53:33.578Z,19.48
2018-02-10T23:56:03.291Z,16.05
2018-02-10T23:58:33.018Z,17.02
